createdAt,value
2023-04-18T00:02:17.327Z,76.31
2023-04-18T00:04:46.423Z,76.24
2023-04-18T00:07:15.148Z,76.01
2023-04-18T00:09:43.714Z,75.88
2023-04-18T00:12:12.221Z,75.62
2023-04-18T00:14:41.043Z,75.60
2023-04-18T00:17:08.849Z,75.58
2023-04-18T00:19:37.625Z,75.63
2023-04-18T00:22:07.473Z,75.63
2023-04-18T00:24:35.238Z,75.28
2023-04-18T00:27:03.342Z,75.33
2023-04-18T00:29:31.945Z,75.41
2023-04-18T00:32:00.039Z,75.34
2023-04-18T00:34:31.530Z,75.28
2023-04-18T00:36:59.358Z,75.20
2023-04-18T00:39:27.396Z,75.05
2023-04-18T00:41:55.333Z,74.89
2023-04-18T00:44:23.078Z,75.08
2023-04-18T00:46:51.293Z,75.17
2023-04-18T00:49:19.088Z,75.23
2023-04-18T00:51:47.258Z,75.20
2023-04-18T00:54:16.953Z,75.08
2023-04-18T00:56:47.941Z,75.19
2023-04-18T00:59:16.922Z,75.25
2023-04-18T01:01:45.278Z,75.23
2023-04-18T01:04:13.750Z,75.31
2023-04-18T01:06:44.097Z,75.31
2023-04-18T01:09:13.893Z,75.21
2023-04-18T01:11:41.714Z,75.13
2023-04-18T01:14:10.550Z,74.91
2023-04-18T01:16:38.951Z,74.59
2023-04-18T01:19:06.717Z,74.53
2023-04-18T01:21:37.509Z,74.44
2023-04-18T01:24:09.901Z,74.39
2023-04-18T01:26:38.119Z,74.10
2023-04-18T01:29:06.816Z,73.93
2023-04-18T01:31:36.284Z,73.69
2023-04-18T01:34:04.874Z,73.27
2023-04-18T01:36:33.699Z,72.92
2023-04-18T01:39:01.785Z,72.65
2023-04-18T01:41:32.856Z,72.59
2023-04-18T01:44:01.161Z,72.43
2023-04-18T01:46:29.160Z,72.60
2023-04-18T01:48:57.286Z,72.58
2023-04-18T01:51:26.584Z,72.47
2023-04-18T01:53:54.413Z,72.39
2023-04-18T01:56:22.426Z,72.41
2023-04-18T01:58:50.352Z,72.41
2023-04-18T02:01:18.331Z,72.41
2023-04-18T02:03:46.931Z,72.51
2023-04-18T02:06:14.864Z,72.66
2023-04-18T02:08:42.658Z,72.55
2023-04-18T02:11:10.463Z,72.30
2023-04-18T02:13:38.328Z,72.21
2023-04-18T02:16:12.011Z,72.23
2023-04-18T02:18:41.398Z,72.07
2023-04-18T02:21:11.501Z,71.97
2023-04-18T02:23:39.283Z,71.67
2023-04-18T02:26:07.169Z,71.17
2023-04-18T02:28:35.203Z,70.88
2023-04-18T02:31:04.590Z,70.95
2023-04-18T02:33:35.338Z,70.87
2023-04-18T02:36:03.325Z,70.60
2023-04-18T02:38:31.839Z,70.48
2023-04-18T02:40:59.951Z,70.52
2023-04-18T02:43:28.070Z,70.40
2023-04-18T02:45:56.224Z,70.36
2023-04-18T02:48:24.084Z,70.28
2023-04-18T02:50:52.166Z,70.14
2023-04-18T02:53:21.196Z,70.01
2023-04-18T02:55:53.859Z,70.19
2023-04-18T02:58:24.008Z,70.13
2023-04-18T03:01:21.210Z,69.98
2023-04-18T03:03:56.473Z,69.96
2023-04-18T03:06:33.686Z,69.89
2023-04-18T03:09:03.502Z,69.76
2023-04-18T03:11:32.694Z,69.83
2023-04-18T03:14:00.921Z,69.84
2023-04-18T03:16:34.190Z,69.98
2023-04-18T03:19:03.380Z,69.81
2023-04-18T03:21:32.561Z,69.82
2023-04-18T03:24:01.107Z,69.95
2023-04-18T03:26:29.095Z,69.90
2023-04-18T03:28:57.426Z,69.75
2023-04-18T03:31:26.352Z,69.75
2023-04-18T03:33:54.202Z,69.89
2023-04-18T03:36:25.468Z,69.99
2023-04-18T03:38:54.623Z,70.07
2023-04-18T03:41:22.487Z,70.03
2023-04-18T03:43:50.842Z,70.07
2023-04-18T03:46:18.850Z,70.09
2023-04-18T03:48:47.661Z,70.25
2023-04-18T03:51:16.754Z,70.32
2023-04-18T03:53:44.594Z,70.32
2023-04-18T03:56:12.724Z,70.36
2023-04-18T03:58:48.309Z,70.50
2023-04-18T04:01:19.377Z,70.73
2023-04-18T04:03:47.399Z,70.84
2023-04-18T04:06:17.949Z,70.86
2023-04-18T04:08:46.512Z,71.01
2023-04-18T04:11:15.101Z,70.92
2023-04-18T04:13:43.260Z,70.49
2023-04-18T04:16:11.820Z,70.43
2023-04-18T04:18:39.630Z,70.50
2023-04-18T04:21:08.070Z,70.71
2023-04-18T04:23:46.301Z,70.80
2023-04-18T04:26:23.362Z,70.79
2023-04-18T04:28:58.631Z,70.97
2023-04-18T04:31:28.841Z,71.04
2023-04-18T04:33:57.625Z,70.90
2023-04-18T04:36:27.237Z,70.76
2023-04-18T04:38:56.038Z,70.73
2023-04-18T04:41:31.679Z,70.74
2023-04-18T04:44:02.013Z,70.78
2023-04-18T04:46:32.635Z,70.92
2023-04-18T04:49:01.255Z,70.96
2023-04-18T04:51:29.134Z,70.89
2023-04-18T04:53:57.614Z,70.94
2023-04-18T04:56:25.703Z,71.04
2023-04-18T04:58:56.133Z,71.06
2023-04-18T05:01:34.649Z,71.35
2023-04-18T05:04:02.579Z,71.55
2023-04-18T05:06:31.423Z,71.58
2023-04-18T05:09:00.962Z,72.05
2023-04-18T05:11:28.829Z,72.17
2023-04-18T05:13:56.625Z,72.28
2023-04-18T05:16:24.541Z,72.21
2023-04-18T05:18:52.478Z,72.98
2023-04-18T05:21:20.557Z,74.06
2023-04-18T05:23:48.403Z,74.74
2023-04-18T05:26:16.453Z,75.16
2023-04-18T05:28:44.626Z,75.37
2023-04-18T05:31:13.936Z,75.37
2023-04-18T05:33:43.424Z,75.41
2023-04-18T05:36:11.252Z,75.40
2023-04-18T05:38:39.206Z,75.11
2023-04-18T05:41:07.069Z,75.09
2023-04-18T05:43:34.945Z,75.02
2023-04-18T05:46:03.009Z,74.92
2023-04-18T05:48:31.014Z,74.82
2023-04-18T05:50:59.127Z,74.63
2023-04-18T05:53:27.158Z,74.43
2023-04-18T05:55:55.133Z,74.37
2023-04-18T05:58:22.924Z,74.41
2023-04-18T06:00:50.883Z,74.38
2023-04-18T06:03:18.987Z,74.34
2023-04-18T06:05:46.936Z,74.53
2023-04-18T06:08:14.784Z,74.49
2023-04-18T06:10:42.785Z,74.64
2023-04-18T06:13:10.756Z,74.60
2023-04-18T06:15:38.813Z,74.57
2023-04-18T06:18:06.891Z,74.61
2023-04-18T06:20:35.020Z,74.65
2023-04-18T06:23:03.225Z,76.35
2023-04-18T06:25:30.954Z,75.83
2023-04-18T06:27:58.817Z,75.07
2023-04-18T06:30:26.788Z,74.52
2023-04-18T06:32:54.708Z,74.42
2023-04-18T06:35:23.249Z,74.34
2023-04-18T06:37:52.110Z,74.28
2023-04-18T06:40:20.068Z,74.48
2023-04-18T06:42:47.804Z,74.49
2023-04-18T06:45:15.893Z,73.91
2023-04-18T06:47:44.254Z,73.24
2023-04-18T06:50:12.008Z,72.68
2023-04-18T06:52:44.617Z,72.12
2023-04-18T06:55:13.537Z,71.71
2023-04-18T06:57:42.054Z,71.38
2023-04-18T07:00:11.088Z,70.59
2023-04-18T07:02:39.619Z,70.24
2023-04-18T07:05:07.956Z,70.34
2023-04-18T07:07:35.939Z,69.70
2023-04-18T07:10:05.041Z,69.08
2023-04-18T07:12:33.114Z,67.99
2023-04-18T07:15:00.914Z,67.75
2023-04-18T07:17:28.770Z,67.43
2023-04-18T07:19:56.929Z,67.29
2023-04-18T07:22:24.900Z,67.16
2023-04-18T07:24:52.598Z,67.05
2023-04-18T07:27:20.753Z,66.64
2023-04-18T07:29:48.483Z,66.26
2023-04-18T07:32:16.284Z,66.02
2023-04-18T07:34:45.340Z,65.39
2023-04-18T07:37:14.917Z,64.99
2023-04-18T07:39:43.025Z,64.47
2023-04-18T07:42:11.427Z,64.32
2023-04-18T07:44:39.294Z,64.43
2023-04-18T07:47:10.053Z,64.35
2023-04-18T07:49:38.173Z,63.46
2023-04-18T07:52:06.016Z,63.14
2023-04-18T07:54:34.062Z,63.41
2023-04-18T07:57:02.274Z,62.58
2023-04-18T07:59:32.301Z,62.01
2023-04-18T08:02:00.702Z,61.44
2023-04-18T08:04:30.383Z,60.76
2023-04-18T08:06:58.909Z,60.40
2023-04-18T08:09:27.007Z,59.33
2023-04-18T08:11:56.681Z,59.39
2023-04-18T08:14:24.720Z,58.32
2023-04-18T08:16:52.480Z,57.68
2023-04-18T08:19:20.231Z,57.56
2023-04-18T08:21:50.905Z,57.40
2023-04-18T08:24:18.770Z,56.92
2023-04-18T08:26:46.612Z,56.23
2023-04-18T08:29:14.609Z,56.20
2023-04-18T08:31:42.956Z,55.47
2023-04-18T08:34:10.750Z,55.06
2023-04-18T08:36:38.460Z,55.07
2023-04-18T08:39:07.938Z,54.94
2023-04-18T08:41:37.174Z,54.21
2023-04-18T08:44:06.458Z,53.68
2023-04-18T08:46:36.284Z,53.66
2023-04-18T08:49:05.227Z,53.92
2023-04-18T08:51:33.897Z,54.33
2023-04-18T08:54:04.669Z,55.39
2023-04-18T08:56:32.692Z,56.16
2023-04-18T08:59:00.538Z,56.78
2023-04-18T09:01:48.569Z,57.04
2023-04-18T09:04:35.738Z,57.22
2023-04-18T09:07:04.807Z,58.34
2023-04-18T09:09:41.977Z,58.92
2023-04-18T09:12:11.622Z,59.28
2023-04-18T09:14:46.811Z,59.64
2023-04-18T09:17:18.662Z,59.58
2023-04-18T09:19:48.946Z,59.64
2023-04-18T09:22:18.215Z,60.27
2023-04-18T09:24:47.983Z,60.63
2023-04-18T09:27:15.957Z,60.76
2023-04-18T09:29:49.572Z,60.35
2023-04-18T09:32:29.459Z,60.45
2023-04-18T09:35:04.379Z,60.30
2023-04-18T09:37:33.090Z,59.65
2023-04-18T09:40:00.876Z,58.79
2023-04-18T09:42:36.335Z,58.70
2023-04-18T09:45:05.486Z,57.48
2023-04-18T09:47:37.798Z,56.76
2023-04-18T09:50:06.885Z,57.26
2023-04-18T09:52:36.136Z,57.75
2023-04-18T09:55:05.355Z,57.84
2023-04-18T09:57:33.876Z,57.43
2023-04-18T10:00:04.111Z,57.30
2023-04-18T10:02:35.959Z,58.65
2023-04-18T10:05:08.016Z,58.16
2023-04-18T10:07:37.358Z,56.01
2023-04-18T10:10:05.911Z,56.31
2023-04-18T10:12:33.856Z,56.39
2023-04-18T10:15:02.034Z,55.43
2023-04-18T10:17:36.798Z,55.68
2023-04-18T10:20:08.012Z,55.72
2023-04-18T10:22:37.017Z,55.68
2023-04-18T10:25:06.365Z,54.11
2023-04-18T10:27:50.014Z,53.19
2023-04-18T10:30:18.381Z,51.81
2023-04-18T10:32:46.777Z,50.27
2023-04-18T10:35:15.397Z,48.08
2023-04-18T10:37:50.547Z,47.13
2023-04-18T10:40:31.958Z,44.22
2023-04-18T10:43:00.360Z,43.59
2023-04-18T10:45:30.919Z,42.98
2023-04-18T10:48:18.017Z,42.69
2023-04-18T10:51:04.595Z,42.51
2023-04-18T10:53:32.872Z,39.73
2023-04-18T10:56:01.122Z,38.17
2023-04-18T10:58:29.242Z,38.43
2023-04-18T11:00:57.330Z,38.08
2023-04-18T11:03:32.895Z,38.17
2023-04-18T11:06:01.596Z,37.91
2023-04-18T11:08:30.133Z,37.84
2023-04-18T11:10:59.196Z,37.97
2023-04-18T11:13:27.013Z,36.87
2023-04-18T11:15:55.221Z,35.94
2023-04-18T11:18:23.152Z,35.57
2023-04-18T11:20:51.722Z,34.91
2023-04-18T11:23:23.092Z,34.47
2023-04-18T11:25:56.483Z,35.09
2023-04-18T11:28:27.606Z,33.77
2023-04-18T11:30:57.732Z,34.08
2023-04-18T11:33:27.525Z,33.76
2023-04-18T11:35:57.480Z,34.73
2023-04-18T11:38:33.425Z,34.82
2023-04-18T11:41:04.552Z,34.60
2023-04-18T11:43:32.395Z,33.93
2023-04-18T11:46:01.801Z,33.92
2023-04-18T11:48:36.732Z,34.06
2023-04-18T11:51:05.439Z,34.33
2023-04-18T11:53:34.658Z,34.28
2023-04-18T11:56:03.989Z,34.89
2023-04-18T11:58:35.562Z,32.62
2023-04-18T12:01:19.856Z,32.55
2023-04-18T12:04:01.746Z,30.67
2023-04-18T12:06:46.620Z,28.12
2023-04-18T12:09:15.381Z,27.67
2023-04-18T12:11:43.314Z,27.08
2023-04-18T12:14:21.913Z,27.81
2023-04-18T12:16:50.523Z,28.33
2023-04-18T12:19:20.907Z,28.56
2023-04-18T12:22:03.541Z,28.85
2023-04-18T12:24:32.378Z,28.64
2023-04-18T12:27:00.369Z,27.70
2023-04-18T12:29:29.085Z,27.27
2023-04-18T12:31:58.776Z,27.42
2023-04-18T12:34:27.838Z,27.42
2023-04-18T12:36:56.171Z,26.65
2023-04-18T12:39:26.037Z,27.05
2023-04-18T12:41:54.637Z,27.43
2023-04-18T12:44:24.765Z,27.44
2023-04-18T12:46:53.337Z,27.80
2023-04-18T12:49:21.977Z,28.55
2023-04-18T12:51:50.423Z,28.31
2023-04-18T12:54:18.614Z,28.41
2023-04-18T12:56:46.728Z,28.86
2023-04-18T12:59:14.762Z,28.57
2023-04-18T13:01:42.802Z,28.82
2023-04-18T13:04:12.864Z,29.13
2023-04-18T13:06:41.602Z,29.23
2023-04-18T13:09:10.633Z,28.76
2023-04-18T13:11:38.515Z,28.88
2023-04-18T13:14:06.319Z,29.17
2023-04-18T13:16:34.386Z,28.91
2023-04-18T13:19:02.570Z,28.95
2023-04-18T13:21:31.342Z,29.03
2023-04-18T13:23:59.385Z,28.75
2023-04-18T13:26:27.479Z,28.83
2023-04-18T13:28:55.221Z,28.98
2023-04-18T13:31:23.105Z,28.07
2023-04-18T13:33:51.792Z,27.65
2023-04-18T13:36:19.635Z,27.87
2023-04-18T13:38:48.306Z,27.62
2023-04-18T13:41:16.522Z,27.77
2023-04-18T13:43:44.608Z,27.67
2023-04-18T13:46:12.427Z,27.35
2023-04-18T13:48:40.634Z,27.47
2023-04-18T13:51:08.484Z,27.93
2023-04-18T13:53:36.402Z,27.94
2023-04-18T13:56:04.784Z,28.46
2023-04-18T13:58:32.753Z,28.37
2023-04-18T14:01:00.938Z,28.58
2023-04-18T14:03:30.260Z,28.88
2023-04-18T14:05:59.408Z,29.18
2023-04-18T14:08:27.692Z,29.12
2023-04-18T14:10:56.048Z,29.40
2023-04-18T14:13:24.067Z,29.44
2023-04-18T14:15:52.962Z,29.28
2023-04-18T14:18:21.902Z,29.36
2023-04-18T14:20:49.784Z,29.62
2023-04-18T14:23:18.061Z,29.38
2023-04-18T14:25:46.382Z,28.53
2023-04-18T14:28:14.234Z,28.51
2023-04-18T14:30:41.960Z,28.75
2023-04-18T14:33:10.701Z,28.84
2023-04-18T14:35:38.440Z,29.29
2023-04-18T14:38:06.210Z,29.38
2023-04-18T14:40:34.257Z,29.49
2023-04-18T14:43:02.303Z,29.49
2023-04-18T14:45:32.523Z,29.59
2023-04-18T14:48:01.068Z,29.70
2023-04-18T14:50:28.903Z,29.75
2023-04-18T14:52:57.107Z,30.12
2023-04-18T14:55:25.475Z,29.97
2023-04-18T14:57:54.846Z,29.62
2023-04-18T15:00:22.864Z,28.94
2023-04-18T15:02:51.021Z,29.06
2023-04-18T15:05:19.714Z,29.35
2023-04-18T15:07:48.061Z,29.70
2023-04-18T15:10:16.230Z,29.91
2023-04-18T15:12:44.192Z,29.77
2023-04-18T15:15:12.474Z,29.89
2023-04-18T15:17:40.486Z,29.95
2023-04-18T15:20:08.905Z,29.80
2023-04-18T15:22:37.423Z,29.83
2023-04-18T15:25:05.851Z,30.30
2023-04-18T15:27:33.739Z,30.33
2023-04-18T15:30:02.388Z,30.25
2023-04-18T15:32:30.281Z,30.16
2023-04-18T15:34:58.230Z,30.08
2023-04-18T15:37:26.369Z,30.32
2023-04-18T15:39:54.301Z,30.11
2023-04-18T15:42:22.449Z,29.91
2023-04-18T15:44:50.284Z,30.01
2023-04-18T15:47:18.238Z,30.18
2023-04-18T15:49:46.298Z,30.46
2023-04-18T15:52:15.939Z,30.49
2023-04-18T15:54:44.104Z,30.41
2023-04-18T15:57:12.117Z,30.42
2023-04-18T15:59:39.854Z,30.65
2023-04-18T16:02:08.819Z,30.54
2023-04-18T16:04:37.127Z,30.67
2023-04-18T16:07:05.097Z,30.83
2023-04-18T16:09:33.320Z,30.85
2023-04-18T16:12:03.442Z,30.62
2023-04-18T16:14:31.313Z,30.85
2023-04-18T16:16:59.727Z,30.95
2023-04-18T16:19:27.982Z,31.05
2023-04-18T16:21:56.010Z,31.40
2023-04-18T16:24:25.700Z,31.89
2023-04-18T16:26:53.599Z,32.37
2023-04-18T16:29:21.816Z,32.83
2023-04-18T16:31:51.615Z,33.30
2023-04-18T16:34:19.765Z,33.56
2023-04-18T16:36:50.833Z,33.57
2023-04-18T16:39:19.287Z,33.71
2023-04-18T16:41:47.655Z,33.63
2023-04-18T16:44:15.642Z,33.83
2023-04-18T16:46:43.755Z,33.97
2023-04-18T16:49:11.908Z,34.18
2023-04-18T16:51:39.852Z,34.34
2023-04-18T16:54:08.725Z,34.55
2023-04-18T16:56:36.533Z,34.72
2023-04-18T16:59:04.543Z,34.77
2023-04-18T17:01:33.972Z,35.15
2023-04-18T17:04:02.461Z,35.33
2023-04-18T17:06:31.516Z,35.73
2023-04-18T17:09:00.017Z,35.96
2023-04-18T17:11:28.094Z,36.02
2023-04-18T17:13:56.352Z,36.37
2023-04-18T17:16:24.625Z,36.81
2023-04-18T17:18:52.417Z,37.06
2023-04-18T17:21:20.570Z,37.26
2023-04-18T17:23:48.525Z,37.58
2023-04-18T17:26:16.255Z,38.06
2023-04-18T17:28:44.221Z,38.46
2023-04-18T17:31:13.724Z,38.88
2023-04-18T17:33:41.762Z,39.29
2023-04-18T17:36:09.741Z,39.52
2023-04-18T17:38:37.511Z,39.85
2023-04-18T17:41:05.680Z,40.07
2023-04-18T17:43:33.575Z,40.36
2023-04-18T17:46:03.631Z,40.59
2023-04-18T17:48:31.966Z,40.67
2023-04-18T17:50:59.981Z,40.70
2023-04-18T17:53:29.160Z,40.82
2023-04-18T17:55:59.609Z,40.94
2023-04-18T17:58:28.205Z,41.06
2023-04-18T18:00:56.481Z,41.59
2023-04-18T18:03:24.624Z,41.88
2023-04-18T18:05:54.916Z,42.30
2023-04-18T18:08:22.834Z,42.61
2023-04-18T18:10:50.765Z,42.87
2023-04-18T18:13:21.837Z,43.12
2023-04-18T18:15:49.856Z,43.21
2023-04-18T18:18:29.725Z,43.41
2023-04-18T18:20:58.341Z,43.54
2023-04-18T18:23:26.940Z,43.63
2023-04-18T18:25:54.851Z,43.71
2023-04-18T18:28:22.758Z,44.00
2023-04-18T18:30:50.867Z,44.13
2023-04-18T18:33:18.990Z,44.29
2023-04-18T18:35:46.727Z,44.44
2023-04-18T18:38:14.507Z,44.50
2023-04-18T18:40:42.411Z,44.63
2023-04-18T18:43:10.500Z,44.74
2023-04-18T18:45:38.948Z,44.77
2023-04-18T18:48:12.729Z,44.81
2023-04-18T18:50:41.948Z,44.98
2023-04-18T18:53:10.137Z,45.21
2023-04-18T18:55:38.409Z,45.30
2023-04-18T18:58:07.903Z,45.52
2023-04-18T19:00:35.693Z,45.67
2023-04-18T19:03:03.703Z,45.85
2023-04-18T19:05:31.542Z,45.96
2023-04-18T19:07:59.628Z,46.16
2023-04-18T19:10:27.431Z,46.21
2023-04-18T19:12:55.375Z,46.33
2023-04-18T19:15:23.602Z,46.38
2023-04-18T19:17:51.802Z,46.62
2023-04-18T19:20:19.587Z,46.72
2023-04-18T19:22:47.504Z,46.92
2023-04-18T19:25:15.717Z,47.03
2023-04-18T19:27:44.042Z,47.07
2023-04-18T19:30:12.108Z,47.02
2023-04-18T19:32:40.340Z,47.22
2023-04-18T19:35:09.882Z,47.19
2023-04-18T19:37:37.583Z,47.26
2023-04-18T19:40:07.137Z,47.36
2023-04-18T19:42:35.105Z,47.41
2023-04-18T19:45:03.221Z,47.42
2023-04-18T19:47:34.173Z,47.43
2023-04-18T19:50:02.347Z,47.53
2023-04-18T19:52:30.194Z,47.63
2023-04-18T19:54:58.367Z,47.63
2023-04-18T19:57:27.710Z,47.74
2023-04-18T19:59:55.723Z,47.81
2023-04-18T20:02:23.918Z,47.92
2023-04-18T20:04:52.097Z,48.05
2023-04-18T20:07:20.075Z,48.16
2023-04-18T20:09:48.206Z,48.03
2023-04-18T20:12:16.003Z,48.03
2023-04-18T20:14:45.189Z,48.36
2023-04-18T20:17:13.271Z,48.63
2023-04-18T20:19:41.418Z,48.75
2023-04-18T20:22:09.747Z,48.94
2023-04-18T20:24:39.559Z,48.87
2023-04-18T20:27:07.661Z,48.91
2023-04-18T20:29:36.048Z,49.19
2023-04-18T20:32:03.963Z,49.26
2023-04-18T20:34:32.143Z,49.27
2023-04-18T20:37:00.127Z,49.35
2023-04-18T20:39:28.138Z,49.49
2023-04-18T20:41:57.812Z,49.44
2023-04-18T20:44:25.819Z,49.51
2023-04-18T20:46:53.871Z,49.78
2023-04-18T20:49:22.064Z,49.94
2023-04-18T20:51:49.754Z,50.22
2023-04-18T20:54:17.801Z,50.20
2023-04-18T20:56:46.233Z,50.30
2023-04-18T20:59:14.046Z,50.32
2023-04-18T21:01:42.015Z,50.42
2023-04-18T21:04:10.092Z,50.50
2023-04-18T21:06:38.054Z,50.61
2023-04-18T21:09:06.550Z,50.54
2023-04-18T21:11:35.068Z,50.56
2023-04-18T21:14:05.720Z,50.79
2023-04-18T21:16:33.761Z,50.96
2023-04-18T21:19:01.967Z,51.21
2023-04-18T21:21:30.045Z,51.26
2023-04-18T21:23:57.910Z,51.45
2023-04-18T21:26:26.423Z,51.64
2023-04-18T21:28:58.492Z,51.76
2023-04-18T21:31:27.256Z,51.93
2023-04-18T21:33:59.259Z,52.06
2023-04-18T21:36:28.189Z,52.27
2023-04-18T21:38:57.244Z,52.28
2023-04-18T21:41:25.648Z,52.36
2023-04-18T21:43:53.775Z,52.52
2023-04-18T21:46:21.760Z,52.42
2023-04-18T21:48:49.578Z,52.64
2023-04-18T21:51:17.560Z,52.58
2023-04-18T21:53:45.474Z,52.63
2023-04-18T21:56:14.107Z,52.86
2023-04-18T21:58:42.785Z,52.88
2023-04-18T22:01:10.747Z,52.99
2023-04-18T22:03:38.610Z,53.18
2023-04-18T22:06:06.767Z,53.41
2023-04-18T22:08:34.817Z,53.54
2023-04-18T22:11:04.833Z,53.74
2023-04-18T22:13:33.376Z,53.83
2023-04-18T22:16:03.533Z,54.04
2023-04-18T22:18:35.277Z,54.00
2023-04-18T22:21:04.292Z,54.14
2023-04-18T22:23:32.191Z,54.18
2023-04-18T22:26:00.243Z,54.35
2023-04-18T22:28:28.447Z,54.43
2023-04-18T22:30:56.811Z,54.45
2023-04-18T22:33:25.165Z,54.43
2023-04-18T22:35:53.183Z,54.52
2023-04-18T22:38:21.141Z,54.62
2023-04-18T22:40:49.210Z,54.64
2023-04-18T22:43:22.594Z,54.58
2023-04-18T22:45:51.260Z,54.67
2023-04-18T22:48:19.414Z,54.65
2023-04-18T22:50:47.392Z,54.78
2023-04-18T22:53:16.105Z,54.83
2023-04-18T22:55:44.611Z,54.81
2023-04-18T22:58:12.344Z,54.90
2023-04-18T23:00:40.141Z,54.93
2023-04-18T23:03:08.554Z,55.08
2023-04-18T23:05:36.470Z,55.10
2023-04-18T23:08:04.628Z,55.26
2023-04-18T23:10:32.404Z,55.31
2023-04-18T23:13:00.706Z,55.39
2023-04-18T23:15:28.676Z,55.44
2023-04-18T23:17:56.439Z,55.42
2023-04-18T23:20:24.315Z,55.65
2023-04-18T23:22:52.848Z,55.67
2023-04-18T23:25:20.727Z,55.85
2023-04-18T23:27:48.865Z,55.90
2023-04-18T23:30:17.295Z,55.98
2023-04-18T23:32:45.371Z,56.00
2023-04-18T23:35:13.458Z,55.95
2023-04-18T23:37:42.179Z,56.14
2023-04-18T23:40:10.169Z,56.10
2023-04-18T23:42:38.271Z,56.20
2023-04-18T23:45:06.508Z,55.96
2023-04-18T23:47:34.782Z,56.07
2023-04-18T23:50:02.668Z,56.04
2023-04-18T23:52:30.659Z,55.90
2023-04-18T23:55:01.906Z,55.90
2023-04-18T23:57:29.705Z,55.88
2023-04-18T23:59:57.753Z,56.01
